createdAt,value
2022-10-30T00:02:21.654Z,5.82
2022-10-30T00:05:10.776Z,7.50
2022-10-30T00:07:59.908Z,10.18
2022-10-30T00:10:50.181Z,8.10
2022-10-30T00:13:39.928Z,6.38
2022-10-30T00:16:27.597Z,7.60
2022-10-30T00:19:15.036Z,6.57
2022-10-30T00:24:49.842Z,7.38
2022-10-30T00:27:37.443Z,13.77
2022-10-30T00:30:26.344Z,6.45
2022-10-30T00:33:13.980Z,8.73
2022-10-30T00:36:01.924Z,7.05
2022-10-30T00:38:49.921Z,8.85
2022-10-30T00:41:39.626Z,6.05
2022-10-30T00:44:42.941Z,7.63
2022-10-30T00:47:39.171Z,7.18
2022-10-30T00:50:31.357Z,7.57
2022-10-30T00:53:22.226Z,12.80
2022-10-30T00:56:13.905Z,12.13
2022-10-30T00:59:06.449Z,7.63
2022-10-30T01:01:56.567Z,6.63
2022-10-30T01:04:48.043Z,6.35
2022-10-30T01:07:35.469Z,7.57
2022-10-30T01:10:23.989Z,6.55
2022-10-30T01:13:12.576Z,12.23
2022-10-30T01:16:20.852Z,9.73
2022-10-30T01:19:23.926Z,8.07
2022-10-30T01:22:36.337Z,7.13
2022-10-30T01:25:50.162Z,8.77
2022-10-30T01:29:02.628Z,7.72
2022-10-30T01:32:06.781Z,7.27
2022-10-30T01:35:03.870Z,8.30
2022-10-30T01:38:04.756Z,9.95
2022-10-30T01:40:52.262Z,9.75
2022-10-30T01:43:42.416Z,10.82
2022-10-30T01:46:49.524Z,9.88
2022-10-30T01:50:10.979Z,6.32
2022-10-30T01:53:13.062Z,10.15
2022-10-30T01:56:19.811Z,5.80
2022-10-30T01:59:16.534Z,8.45
2022-10-30T02:02:05.880Z,8.32
2022-10-30T02:04:54.324Z,9.20
2022-10-30T02:07:42.052Z,8.00
2022-10-30T02:10:32.699Z,7.05
2022-10-30T02:13:21.435Z,7.22
2022-10-30T02:16:10.281Z,9.88
2022-10-30T02:18:58.078Z,7.28
2022-10-30T02:21:47.024Z,8.00
2022-10-30T02:24:35.401Z,9.80
2022-10-30T02:27:40.398Z,7.25
2022-10-30T02:30:28.575Z,6.63
2022-10-30T02:36:03.601Z,11.45
2022-10-30T02:38:52.613Z,7.95
2022-10-30T02:41:40.580Z,8.30
2022-10-30T02:44:28.340Z,8.63
2022-10-30T02:47:16.212Z,9.35
2022-10-30T02:50:04.075Z,9.30
2022-10-30T02:52:51.553Z,9.35
2022-10-30T02:55:40.542Z,9.70
2022-10-30T02:58:27.918Z,10.15
2022-10-30T03:01:18.150Z,10.05
2022-10-30T03:04:06.492Z,10.52
2022-10-30T03:06:53.867Z,10.23
2022-10-30T03:09:41.650Z,10.30
2022-10-30T03:12:30.804Z,8.70
2022-10-30T03:15:18.618Z,10.00
2022-10-30T03:18:06.678Z,9.35
2022-10-30T03:20:59.036Z,7.18
2022-10-30T03:23:47.344Z,8.73
2022-10-30T03:26:34.883Z,8.63
2022-10-30T03:29:23.689Z,9.05
2022-10-30T03:32:11.880Z,8.02
2022-10-30T03:35:00.478Z,7.18
2022-10-30T03:37:47.964Z,6.88
2022-10-30T03:40:35.366Z,6.13
2022-10-30T03:43:23.862Z,7.88
2022-10-30T03:46:12.748Z,5.60
2022-10-30T03:49:00.482Z,7.07
2022-10-30T03:51:48.141Z,8.25
2022-10-30T03:54:35.714Z,8.50
2022-10-30T03:57:23.251Z,7.35
2022-10-30T04:00:12.946Z,8.13
2022-10-30T04:03:02.649Z,6.10
2022-10-30T04:05:51.724Z,6.68
2022-10-30T04:08:39.340Z,5.53
2022-10-30T04:11:27.076Z,6.85
2022-10-30T04:14:14.810Z,6.57
2022-10-30T04:17:02.301Z,7.65
2022-10-30T04:19:51.301Z,9.40
2022-10-30T04:22:38.923Z,9.07
2022-10-30T04:25:27.351Z,7.35
2022-10-30T04:28:15.649Z,7.55
2022-10-30T04:31:03.597Z,7.22
2022-10-30T04:33:51.287Z,7.38
2022-10-30T04:36:40.061Z,7.68
2022-10-30T04:39:27.790Z,6.45
2022-10-30T04:42:15.242Z,7.32
2022-10-30T04:45:05.101Z,5.85
2022-10-30T04:47:52.919Z,11.30
2022-10-30T04:50:41.108Z,6.28
2022-10-30T04:53:29.990Z,12.48
2022-10-30T04:56:17.511Z,5.40
2022-10-30T04:59:05.174Z,8.68
2022-10-30T05:01:53.091Z,7.10
2022-10-30T05:04:41.659Z,9.75
2022-10-30T05:07:29.632Z,7.65
2022-10-30T05:10:21.742Z,6.45
2022-10-30T05:13:12.479Z,9.32
2022-10-30T05:16:00.152Z,6.65
2022-10-30T05:18:47.563Z,12.88
2022-10-30T05:21:35.096Z,8.05
2022-10-30T05:24:22.640Z,7.03
2022-10-30T05:27:11.625Z,8.60
2022-10-30T05:30:03.281Z,7.75
2022-10-30T05:32:50.608Z,6.78
2022-10-30T05:35:39.345Z,6.55
2022-10-30T05:38:27.430Z,5.68
2022-10-30T05:41:14.910Z,9.68
2022-10-30T05:44:03.685Z,6.18
2022-10-30T05:46:51.413Z,6.80
2022-10-30T05:49:39.100Z,7.25
2022-10-30T05:52:26.923Z,6.30
2022-10-30T05:55:14.676Z,6.18
2022-10-30T05:58:05.450Z,7.35
2022-10-30T06:00:54.737Z,7.72
2022-10-30T06:03:43.526Z,6.10
2022-10-30T06:06:31.407Z,5.47
2022-10-30T06:09:18.953Z,6.55
2022-10-30T06:12:07.156Z,6.30
2022-10-30T06:15:19.393Z,6.05
2022-10-30T06:18:10.090Z,7.15
2022-10-30T06:21:02.033Z,6.55
2022-10-30T06:23:50.550Z,7.93
2022-10-30T06:26:38.594Z,7.28
2022-10-30T06:29:30.924Z,6.03
2022-10-30T06:32:25.907Z,9.63
2022-10-30T06:35:14.484Z,6.07
2022-10-30T06:38:16.306Z,6.90
2022-10-30T06:41:04.284Z,12.02
2022-10-30T06:43:52.761Z,7.95
2022-10-30T06:46:40.896Z,10.25
2022-10-30T06:49:31.838Z,8.70
2022-10-30T06:52:23.112Z,8.70
2022-10-30T06:55:12.915Z,7.90
2022-10-30T06:58:01.612Z,10.32
2022-10-30T07:00:54.255Z,8.73
2022-10-30T07:03:42.445Z,5.40
2022-10-30T07:06:32.401Z,6.30
2022-10-30T07:09:20.482Z,11.38
2022-10-30T07:12:10.017Z,7.75
2022-10-30T07:14:58.392Z,9.10
2022-10-30T07:17:55.689Z,10.98
2022-10-30T07:20:45.018Z,9.18
2022-10-30T07:23:38.188Z,8.95
2022-10-30T07:26:26.308Z,10.93
2022-10-30T07:29:14.738Z,11.13
2022-10-30T07:32:04.683Z,10.23
2022-10-30T07:34:56.818Z,14.32
2022-10-30T07:37:45.203Z,15.77
2022-10-30T07:40:35.852Z,10.80
2022-10-30T07:43:25.628Z,10.55
2022-10-30T07:46:20.307Z,12.20
2022-10-30T07:49:09.796Z,12.13
2022-10-30T07:52:00.904Z,12.50
2022-10-30T07:54:51.861Z,7.78
2022-10-30T07:57:45.172Z,13.55
2022-10-30T08:00:33.240Z,12.90
2022-10-30T08:03:24.710Z,10.30
2022-10-30T08:06:13.519Z,11.50
2022-10-30T08:09:02.171Z,16.67
2022-10-30T08:11:50.494Z,15.18
2022-10-30T08:14:40.616Z,12.73
2022-10-30T08:17:29.508Z,18.38
2022-10-30T08:20:20.707Z,13.07
2022-10-30T08:23:10.834Z,15.63
2022-10-30T08:26:01.447Z,13.35
2022-10-30T08:28:49.611Z,11.55
2022-10-30T08:31:40.291Z,17.95
2022-10-30T08:34:31.927Z,14.85
2022-10-30T08:37:20.072Z,15.20
2022-10-30T08:40:10.699Z,12.25
2022-10-30T08:43:00.393Z,14.35
2022-10-30T08:45:49.587Z,15.73
2022-10-30T08:48:55.240Z,18.75
2022-10-30T08:51:44.741Z,13.93
2022-10-30T08:54:41.128Z,13.27
2022-10-30T08:57:32.588Z,19.88
2022-10-30T09:00:20.554Z,13.25
2022-10-30T09:03:08.770Z,14.32
2022-10-30T09:06:03.948Z,13.00
2022-10-30T09:11:42.974Z,14.88
2022-10-30T09:14:31.401Z,11.15
2022-10-30T09:17:22.773Z,14.48
2022-10-30T09:20:12.676Z,12.50
2022-10-30T09:23:10.909Z,14.57
2022-10-30T09:26:00.283Z,18.77
2022-10-30T09:28:48.404Z,12.40
2022-10-30T09:31:38.615Z,15.82
2022-10-30T09:34:31.077Z,14.35
2022-10-30T09:37:23.666Z,14.70
2022-10-30T09:40:33.803Z,12.88
2022-10-30T09:43:39.593Z,16.95
2022-10-30T09:46:59.093Z,13.18
2022-10-30T09:50:06.194Z,13.93
2022-10-30T09:53:08.675Z,14.00
2022-10-30T09:56:15.733Z,14.93
2022-10-30T09:59:22.006Z,17.67
2022-10-30T10:02:37.887Z,15.57
2022-10-30T10:05:34.523Z,14.02
2022-10-30T10:08:36.243Z,15.05
2022-10-30T10:11:33.020Z,16.65
2022-10-30T10:14:36.319Z,15.02
2022-10-30T10:17:33.523Z,14.38
2022-10-30T10:20:41.628Z,14.05
2022-10-30T10:23:40.790Z,18.23
2022-10-30T10:26:48.469Z,12.15
2022-10-30T10:29:53.952Z,11.18
2022-10-30T10:33:06.198Z,12.18
2022-10-30T10:36:24.413Z,12.88
2022-10-30T10:39:35.307Z,14.88
2022-10-30T10:42:41.736Z,9.60
2022-10-30T10:45:45.932Z,13.15
2022-10-30T10:49:00.620Z,18.85
2022-10-30T10:52:00.614Z,26.27
2022-10-30T10:54:55.065Z,12.63
2022-10-30T10:57:46.710Z,16.67
2022-10-30T11:00:40.177Z,13.82
2022-10-30T11:03:46.683Z,25.23
2022-10-30T11:06:44.777Z,15.15
2022-10-30T11:09:33.203Z,17.48
2022-10-30T11:12:30.951Z,11.07
2022-10-30T11:15:52.380Z,10.07
2022-10-30T11:18:42.268Z,14.25
2022-10-30T11:21:41.892Z,9.40
2022-10-30T11:24:33.698Z,10.40
2022-10-30T11:27:35.863Z,8.88
2022-10-30T11:30:30.868Z,19.20
2022-10-30T11:33:31.118Z,11.52
2022-10-30T11:36:24.460Z,15.07
2022-10-30T11:39:20.677Z,12.98
2022-10-30T11:42:15.975Z,14.75
2022-10-30T11:45:09.415Z,15.25
2022-10-30T11:48:06.988Z,12.32
2022-10-30T11:51:06.328Z,16.10
2022-10-30T11:53:54.979Z,12.00
2022-10-30T11:56:51.656Z,11.98
2022-10-30T11:59:41.838Z,12.63
2022-10-30T12:02:43.803Z,11.77
2022-10-30T12:18:59.109Z,17.60
2022-10-30T12:21:50.560Z,13.40
2022-10-30T12:24:44.873Z,8.63
2022-10-30T12:27:38.401Z,6.70
2022-10-30T12:30:27.442Z,20.40
2022-10-30T12:33:23.513Z,23.02
2022-10-30T12:36:18.680Z,22.70
2022-10-30T12:39:14.294Z,25.17
2022-10-30T12:42:08.380Z,20.08
2022-10-30T12:45:14.036Z,14.27
2022-10-30T12:48:16.825Z,13.07
2022-10-30T12:51:22.916Z,12.10
2022-10-30T12:54:26.680Z,17.90
2022-10-30T12:57:20.002Z,10.13
2022-10-30T13:00:15.623Z,18.13
2022-10-30T13:03:27.260Z,15.10
2022-10-30T13:06:22.059Z,14.85
2022-10-30T13:09:22.526Z,16.50
2022-10-30T13:12:17.323Z,16.83
2022-10-30T13:15:14.671Z,10.48
2022-10-30T13:18:17.713Z,16.48
2022-10-30T13:21:25.207Z,11.10
2022-10-30T13:24:19.127Z,17.92
2022-10-30T13:27:16.210Z,19.63
2022-10-30T13:30:07.763Z,10.20
2022-10-30T13:33:13.619Z,12.43
2022-10-30T13:36:09.938Z,16.67
2022-10-30T13:39:10.204Z,14.25
2022-10-30T13:42:19.542Z,15.20
2022-10-30T13:45:37.160Z,11.38
2022-10-30T13:48:48.538Z,20.83
2022-10-30T13:51:43.464Z,17.17
2022-10-30T13:54:38.372Z,15.15
2022-10-30T13:57:35.686Z,16.67
2022-10-30T14:00:31.306Z,15.27
2022-10-30T14:03:37.965Z,15.52
2022-10-30T14:06:37.600Z,16.65
2022-10-30T14:09:43.316Z,17.10
2022-10-30T14:12:52.158Z,11.40
2022-10-30T14:15:45.798Z,8.65
2022-10-30T14:18:47.024Z,8.07
2022-10-30T14:22:02.761Z,8.05
2022-10-30T14:24:51.492Z,7.53
2022-10-30T14:27:39.380Z,7.85
2022-10-30T14:30:29.243Z,10.85
2022-10-30T14:33:43.813Z,8.35
2022-10-30T14:36:50.653Z,10.02
2022-10-30T14:39:41.729Z,12.70
2022-10-30T14:42:45.169Z,7.40
2022-10-30T14:45:43.688Z,7.13
2022-10-30T14:48:50.879Z,7.90
2022-10-30T14:51:46.681Z,6.97
2022-10-30T14:54:46.564Z,9.93
2022-10-30T14:57:54.352Z,6.70
2022-10-30T15:00:43.980Z,7.25
2022-10-30T15:03:54.595Z,10.52
2022-10-30T15:07:17.067Z,8.98
2022-10-30T15:10:20.150Z,15.93
2022-10-30T15:13:19.806Z,21.55
2022-10-30T15:16:13.755Z,15.43
2022-10-30T15:19:07.247Z,11.77
2022-10-30T15:21:57.668Z,15.18
2022-10-30T15:24:46.945Z,18.35
2022-10-30T15:27:35.740Z,15.27
2022-10-30T15:30:28.125Z,13.02
2022-10-30T15:33:23.382Z,10.48
2022-10-30T15:36:19.570Z,7.40
2022-10-30T15:39:12.176Z,12.98
2022-10-30T15:42:04.162Z,8.32
2022-10-30T15:44:53.046Z,10.88
2022-10-30T15:47:48.530Z,9.77
2022-10-30T15:50:41.502Z,7.60
2022-10-30T15:53:39.619Z,10.73
2022-10-30T15:56:32.717Z,7.97
2022-10-30T15:59:26.016Z,8.50
2022-10-30T16:02:23.781Z,8.30
2022-10-30T16:05:23.870Z,9.23
2022-10-30T16:08:20.365Z,6.95
2022-10-30T16:11:07.956Z,8.95
2022-10-30T16:13:56.498Z,8.93
2022-10-30T16:16:46.019Z,10.55
2022-10-30T16:19:46.835Z,13.82
2022-10-30T16:22:40.615Z,22.83
2022-10-30T16:25:28.684Z,28.00
2022-10-30T16:28:30.108Z,30.27
2022-10-30T16:31:20.186Z,24.48
2022-10-30T16:34:16.997Z,23.67
2022-10-30T16:37:06.478Z,24.95
2022-10-30T16:39:57.562Z,14.20
2022-10-30T16:42:54.831Z,15.32
2022-10-30T16:45:50.675Z,17.13
2022-10-30T16:48:38.348Z,17.30
2022-10-30T16:51:25.966Z,16.05
2022-10-30T16:54:27.906Z,13.63
2022-10-30T16:57:26.636Z,12.18
2022-10-30T17:00:25.852Z,11.68
2022-10-30T17:03:15.123Z,9.70
2022-10-30T17:06:06.555Z,12.27
2022-10-30T17:08:59.651Z,7.80
2022-10-30T17:12:05.121Z,8.75
2022-10-30T17:14:56.708Z,8.38
2022-10-30T17:17:45.142Z,11.90
2022-10-30T17:20:32.497Z,9.05
2022-10-30T17:23:20.994Z,11.43
2022-10-30T17:26:13.709Z,10.90
2022-10-30T17:29:01.271Z,12.18
2022-10-30T17:31:51.114Z,11.70
2022-10-30T17:34:39.072Z,10.30
2022-10-30T17:37:26.753Z,10.02
2022-10-30T17:40:15.718Z,7.28
2022-10-30T17:43:03.435Z,8.98
2022-10-30T17:45:51.404Z,9.63
2022-10-30T17:48:41.599Z,11.25
2022-10-30T17:51:29.270Z,8.27
2022-10-30T17:54:16.887Z,7.60
2022-10-30T17:57:04.970Z,8.60
2022-10-30T17:59:52.914Z,9.80
2022-10-30T18:02:41.661Z,11.88
2022-10-30T18:05:34.345Z,10.80
2022-10-30T18:08:22.945Z,13.02
2022-10-30T18:11:12.893Z,10.35
2022-10-30T18:14:02.019Z,12.57
2022-10-30T18:16:54.534Z,13.00
2022-10-30T18:19:43.299Z,13.65
2022-10-30T18:22:32.256Z,12.40
2022-10-30T18:25:25.930Z,15.32
2022-10-30T18:28:13.770Z,12.02
2022-10-30T18:31:01.901Z,10.60
2022-10-30T18:33:49.875Z,11.15
2022-10-30T18:36:37.716Z,12.43
2022-10-30T18:39:26.433Z,11.95
2022-10-30T18:42:14.146Z,10.85
2022-10-30T18:45:01.892Z,12.45
2022-10-30T18:47:50.754Z,13.20
2022-10-30T18:50:39.548Z,12.70
2022-10-30T18:53:31.360Z,11.07
2022-10-30T18:56:26.674Z,12.95
2022-10-30T18:59:14.130Z,11.82
2022-10-30T19:02:01.955Z,13.00
2022-10-30T19:04:49.744Z,14.02
2022-10-30T19:07:37.196Z,12.98
2022-10-30T19:10:31.502Z,11.73
2022-10-30T19:13:22.921Z,13.00
2022-10-30T19:16:15.162Z,11.85
2022-10-30T19:19:02.695Z,13.40
2022-10-30T19:21:50.577Z,14.43
2022-10-30T19:24:38.375Z,9.77
2022-10-30T19:27:26.121Z,12.57
2022-10-30T19:30:16.118Z,10.75
2022-10-30T19:33:03.857Z,13.80
2022-10-30T19:35:55.943Z,13.70
2022-10-30T19:38:43.456Z,16.03
2022-10-30T19:44:23.748Z,11.25
2022-10-30T19:47:12.705Z,11.60
2022-10-30T19:50:00.491Z,11.00
2022-10-30T19:52:48.887Z,12.82
2022-10-30T19:55:40.500Z,12.77
2022-10-30T19:58:28.283Z,11.75
2022-10-30T20:01:16.342Z,11.05
2022-10-30T20:04:05.958Z,11.23
2022-10-30T20:06:56.209Z,10.05
2022-10-30T20:09:46.165Z,11.23
2022-10-30T20:12:33.695Z,11.68
2022-10-30T20:15:23.500Z,11.55
2022-10-30T20:18:16.264Z,10.70
2022-10-30T20:23:55.863Z,11.13
2022-10-30T20:26:43.337Z,11.57
2022-10-30T20:29:31.250Z,15.05
2022-10-30T20:32:18.718Z,15.43
2022-10-30T20:35:10.365Z,15.82
2022-10-30T20:38:03.169Z,13.68
2022-10-30T20:40:53.666Z,11.63
2022-10-30T20:43:41.131Z,14.75
2022-10-30T20:46:32.843Z,10.52
2022-10-30T20:49:21.134Z,14.00
2022-10-30T20:52:08.953Z,11.82
2022-10-30T20:54:57.797Z,11.52
2022-10-30T20:57:45.208Z,11.30
2022-10-30T21:00:32.735Z,12.65
2022-10-30T21:03:20.439Z,12.10
2022-10-30T21:06:09.750Z,11.65
2022-10-30T21:08:57.610Z,11.18
2022-10-30T21:11:51.837Z,13.18
2022-10-30T21:14:39.641Z,13.25
2022-10-30T21:17:27.261Z,12.27
2022-10-30T21:20:15.244Z,12.75
2022-10-30T21:23:04.858Z,11.68
2022-10-30T21:26:05.450Z,10.35
2022-10-30T21:28:54.438Z,12.52
2022-10-30T21:31:42.583Z,13.23
2022-10-30T21:34:32.338Z,11.10
2022-10-30T21:37:20.000Z,10.85
2022-10-30T21:40:09.686Z,10.45
2022-10-30T21:42:59.903Z,11.35
2022-10-30T21:45:52.269Z,11.80
2022-10-30T21:48:40.592Z,11.82
2022-10-30T21:51:30.444Z,10.50
2022-10-30T21:54:19.596Z,11.20
2022-10-30T21:57:07.375Z,11.13
2022-10-30T21:59:56.075Z,12.60
2022-10-30T22:02:47.956Z,13.38
2022-10-30T22:05:35.828Z,12.48
2022-10-30T22:08:23.358Z,11.55
2022-10-30T22:11:12.417Z,12.70
2022-10-30T22:14:03.076Z,15.70
2022-10-30T22:16:50.814Z,12.90
2022-10-30T22:19:39.707Z,15.88
2022-10-30T22:22:27.212Z,14.23
2022-10-30T22:25:16.918Z,11.93
2022-10-30T22:28:05.572Z,12.05
2022-10-30T22:30:53.665Z,10.95
2022-10-30T22:33:46.138Z,12.25
2022-10-30T22:36:35.339Z,12.90
2022-10-30T22:39:23.435Z,13.43
2022-10-30T22:42:11.472Z,12.52
2022-10-30T22:44:58.902Z,11.05
2022-10-30T22:47:46.475Z,12.93
2022-10-30T22:50:34.032Z,10.93
2022-10-30T22:53:23.334Z,10.45
2022-10-30T22:56:17.806Z,11.95
2022-10-30T22:59:09.705Z,13.43
2022-10-30T23:01:57.325Z,10.73
2022-10-30T23:04:45.148Z,9.82
2022-10-30T23:07:32.684Z,10.38
2022-10-30T23:10:21.597Z,10.40
2022-10-30T23:13:10.772Z,10.98
2022-10-30T23:16:01.828Z,11.25
2022-10-30T23:18:50.829Z,11.70
2022-10-30T23:21:38.445Z,9.10
2022-10-30T23:24:27.116Z,9.77
2022-10-30T23:27:15.919Z,8.90
2022-10-30T23:30:05.830Z,10.52
2022-10-30T23:32:54.686Z,11.93
2022-10-30T23:35:42.381Z,13.88
2022-10-30T23:38:30.221Z,9.13
2022-10-30T23:41:17.765Z,8.77
2022-10-30T23:44:09.268Z,11.05
2022-10-30T23:46:56.577Z,9.77
2022-10-30T23:49:44.247Z,11.75
2022-10-30T23:52:31.848Z,8.77
2022-10-30T23:55:22.464Z,9.60
2022-10-30T23:58:09.835Z,10.85
